sensor_id;sensor_type;location;lat;lon;timestamp;pressure;altitude;pressure_sealevel;temperature;humidity
70589;BME280;58152;49.202;18.744;2023-04-07T00:01:49;97242.53;;;2.13;62.06
70589;BME280;58152;49.202;18.744;2023-04-07T00:04:15;97246.84;;;2.13;62.42
70589;BME280;58152;49.202;18.744;2023-04-07T00:06:40;97246.84;;;2.13;62.51
70589;BME280;58152;49.202;18.744;2023-04-07T00:09:08;97246.81;;;2.16;62.69
70589;BME280;58152;49.202;18.744;2023-04-07T00:11:34;97252.84;;;2.15;62.55
70589;BME280;58152;49.202;18.744;2023-04-07T00:13:59;97241.72;;;2.11;62.84
70589;BME280;58152;49.202;18.744;2023-04-07T00:16:25;97239.97;;;2.10;62.82
70589;BME280;58152;49.202;18.744;2023-04-07T00:18:50;97227.91;;;2.09;62.90
70589;BME280;58152;49.202;18.744;2023-04-07T00:21:16;97234.78;;;2.10;62.57
70589;BME280;58152;49.202;18.744;2023-04-07T00:23:41;97233.06;;;2.11;62.68
70589;BME280;58152;49.202;18.744;2023-04-07T00:26:07;97230.47;;;2.11;62.92
70589;BME280;58152;49.202;18.744;2023-04-07T00:28:33;97232.25;;;2.09;62.91
70589;BME280;58152;49.202;18.744;2023-04-07T00:30:58;97228.78;;;2.10;63.53
70589;BME280;58152;49.202;18.744;2023-04-07T00:33:26;97225.34;;;2.08;63.15
70589;BME280;58152;49.202;18.744;2023-04-07T00:35:52;97233.06;;;2.12;63.20
70589;BME280;58152;49.202;18.744;2023-04-07T00:38:18;97223.59;;;2.10;63.08
70589;BME280;58152;49.202;18.744;2023-04-07T00:40:44;97219.25;;;2.10;63.43
70589;BME280;58152;49.202;18.744;2023-04-07T00:43:09;97220.16;;;2.09;63.43
70589;BME280;58152;49.202;18.744;2023-04-07T00:45:35;97215.81;;;2.10;63.63
70589;BME280;58152;49.202;18.744;2023-04-07T00:48:01;97210.63;;;2.13;63.18
70589;BME280;58152;49.202;18.744;2023-04-07T00:50:26;97218.41;;;2.10;63.64
70589;BME280;58152;49.202;18.744;2023-04-07T00:52:52;97217.56;;;2.09;63.17
70589;BME280;58152;49.202;18.744;2023-04-07T00:55:19;97214.16;;;2.07;62.82
70589;BME280;58152;49.202;18.744;2023-04-07T00:57:44;97210.69;;;2.08;63.22
70589;BME280;58152;49.202;18.744;2023-04-07T01:00:11;97215.81;;;2.10;62.80
70589;BME280;58152;49.202;18.744;2023-04-07T01:03:32;97195.22;;;2.03;63.11
70589;BME280;58152;49.202;18.744;2023-04-07T01:16:28;97192.53;;;2.10;63.10
70589;BME280;58152;49.202;18.744;2023-04-07T01:19:08;97186.50;;;2.09;63.17
70589;BME280;58152;49.202;18.744;2023-04-07T01:21:39;97192.53;;;2.10;63.01
70589;BME280;58152;49.202;18.744;2023-04-07T01:24:20;97191.69;;;2.09;62.59
70589;BME280;58152;49.202;18.744;2023-04-07T01:26:51;97190.88;;;2.07;63.33
70589;BME280;58152;49.202;18.744;2023-04-07T01:29:41;97187.41;;;2.07;63.39
70589;BME280;58152;49.202;18.744;2023-04-07T01:32:12;97190.88;;;2.06;62.95
70589;BME280;58152;49.202;18.744;2023-04-07T01:34:39;97185.75;;;2.02;62.90
70589;BME280;58152;49.202;18.744;2023-04-07T01:37:06;97183.19;;;1.99;63.20
70589;BME280;58152;49.202;18.744;2023-04-07T01:39:32;97198.69;;;2.02;63.27
70589;BME280;58152;49.202;18.744;2023-04-07T01:41:59;97181.47;;;2.00;63.22
70589;BME280;58152;49.202;18.744;2023-04-07T01:44:27;97174.63;;;1.96;63.52
70589;BME280;58152;49.202;18.744;2023-04-07T01:46:54;97176.31;;;1.98;63.23
70589;BME280;58152;49.202;18.744;2023-04-07T01:49:21;97171.19;;;1.95;63.68
70589;BME280;58152;49.202;18.744;2023-04-07T01:51:50;97175.41;;;2.01;63.64
70589;BME280;58152;49.202;18.744;2023-04-07T01:54:17;97166.81;;;1.99;63.66
70589;BME280;58152;49.202;18.744;2023-04-07T01:56:43;97174.63;;;1.97;63.64
70589;BME280;58152;49.202;18.744;2023-04-07T01:59:09;97169.44;;;1.96;64.30
70589;BME280;58152;49.202;18.744;2023-04-07T02:01:35;97162.53;;;1.96;63.79
70589;BME280;58152;49.202;18.744;2023-04-07T02:07:18;97165.97;;;1.98;63.91
70589;BME280;58152;49.202;18.744;2023-04-07T02:09:48;97150.47;;;1.95;64.44
70589;BME280;58152;49.202;18.744;2023-04-07T02:12:15;97155.63;;;1.97;63.91
70589;BME280;58152;49.202;18.744;2023-04-07T02:14:42;97147.03;;;1.95;64.19
70589;BME280;58152;49.202;18.744;2023-04-07T02:17:12;97156.47;;;1.99;64.06
70589;BME280;58152;49.202;18.744;2023-04-07T02:19:40;97150.41;;;2.00;64.14
70589;BME280;58152;49.202;18.744;2023-04-07T02:22:07;97153.03;;;1.97;63.76
70589;BME280;58152;49.202;18.744;2023-04-07T02:24:33;97151.31;;;1.96;64.12
70589;BME280;58152;49.202;18.744;2023-04-07T02:26:58;97156.44;;;2.00;63.73
70589;BME280;58152;49.202;18.744;2023-04-07T02:29:26;97147.91;;;1.94;64.25
70589;BME280;58152;49.202;18.744;2023-04-07T02:31:51;97149.59;;;1.96;64.45
70589;BME280;58152;49.202;18.744;2023-04-07T02:34:17;97147.88;;;1.95;63.90
70589;BME280;58152;49.202;18.744;2023-04-07T02:36:44;97147.06;;;1.93;63.82
70589;BME280;58152;49.202;18.744;2023-04-07T02:39:10;97151.34;;;1.94;63.91
70589;BME280;58152;49.202;18.744;2023-04-07T02:41:35;97153.09;;;1.92;63.53
70589;BME280;58152;49.202;18.744;2023-04-07T02:44:01;97138.53;;;1.88;64.03
70589;BME280;58152;49.202;18.744;2023-04-07T02:46:26;97146.22;;;1.93;63.81
70589;BME280;58152;49.202;18.744;2023-04-07T02:48:51;97137.63;;;1.88;63.77
70589;BME280;58152;49.202;18.744;2023-04-07T02:51:17;97144.47;;;1.93;63.77
70589;BME280;58152;49.202;18.744;2023-04-07T02:53:45;97140.16;;;1.92;63.60
70589;BME280;58152;49.202;18.744;2023-04-07T02:56:10;97139.34;;;1.90;63.82
70589;BME280;58152;49.202;18.744;2023-04-07T02:58:36;97139.34;;;1.90;63.90
70589;BME280;58152;49.202;18.744;2023-04-07T03:01:01;97147.06;;;1.92;64.13
70589;BME280;58152;49.202;18.744;2023-04-07T03:03:27;97133.34;;;1.88;63.66
70589;BME280;58152;49.202;18.744;2023-04-07T03:05:52;97141.97;;;1.89;64.10
70589;BME280;58152;49.202;18.744;2023-04-07T03:08:18;97130.78;;;1.85;63.86
70589;BME280;58152;49.202;18.744;2023-04-07T03:10:43;97132.47;;;1.88;63.87
70589;BME280;58152;49.202;18.744;2023-04-07T03:13:08;97135.06;;;1.89;63.57
70589;BME280;58152;49.202;18.744;2023-04-07T03:15:34;97137.66;;;1.86;64.34
70589;BME280;58152;49.202;18.744;2023-04-07T03:17:59;97143.66;;;1.90;63.84
70589;BME280;58152;49.202;18.744;2023-04-07T03:20:25;97147.13;;;1.87;63.73
70589;BME280;58152;49.202;18.744;2023-04-07T03:22:50;97137.66;;;1.86;64.48
70589;BME280;58152;49.202;18.744;2023-04-07T03:25:16;97132.47;;;1.88;63.95
70589;BME280;58152;49.202;18.744;2023-04-07T03:27:41;97141.16;;;1.85;64.14
70589;BME280;58152;49.202;18.744;2023-04-07T03:30:07;97141.09;;;1.88;64.14
70589;BME280;58152;49.202;18.744;2023-04-07T03:32:33;97131.69;;;1.84;64.54
70589;BME280;58152;49.202;18.744;2023-04-07T03:34:58;97139.38;;;1.89;64.45
70589;BME280;58152;49.202;18.744;2023-04-07T03:37:23;97129.91;;;1.86;64.32
70589;BME280;58152;49.202;18.744;2023-04-07T03:39:49;97138.50;;;1.90;64.18
70589;BME280;58152;49.202;18.744;2023-04-07T03:42:14;97138.53;;;1.87;64.43
70589;BME280;58152;49.202;18.744;2023-04-07T03:44:40;97144.50;;;1.90;64.73
70589;BME280;58152;49.202;18.744;2023-04-07T03:47:08;97138.53;;;1.88;64.38
70589;BME280;58152;49.202;18.744;2023-04-07T03:49:33;97145.41;;;1.89;64.90
70589;BME280;58152;49.202;18.744;2023-04-07T03:51:58;97137.63;;;1.88;64.60
70589;BME280;58152;49.202;18.744;2023-04-07T03:54:24;97141.97;;;1.89;64.43
70589;BME280;58152;49.202;18.744;2023-04-07T03:56:49;97146.28;;;1.87;64.97
70589;BME280;58152;49.202;18.744;2023-04-07T03:59:15;97142.81;;;1.89;64.60
70589;BME280;58152;49.202;18.744;2023-04-07T04:01:40;97143.66;;;1.90;64.73
70589;BME280;58152;49.202;18.744;2023-04-07T04:04:06;97148.81;;;1.91;64.27
70589;BME280;58152;49.202;18.744;2023-04-07T04:06:31;97142.75;;;1.92;64.71
70589;BME280;58152;49.202;18.744;2023-04-07T04:08:56;97142.78;;;1.91;65.17
70589;BME280;58152;49.202;18.744;2023-04-07T04:11:22;97149.66;;;1.93;64.81
70589;BME280;58152;49.202;18.744;2023-04-07T04:13:48;97148.88;;;1.88;64.82
70589;BME280;58152;49.202;18.744;2023-04-07T04:16:13;97156.56;;;1.93;64.81
70589;BME280;58152;49.202;18.744;2023-04-07T04:18:38;97147.91;;;1.94;64.61
70589;BME280;58152;49.202;18.744;2023-04-07T04:21:04;97152.22;;;1.95;64.82
70589;BME280;58152;49.202;18.744;2023-04-07T04:23:29;97156.56;;;1.93;64.89
70589;BME280;58152;49.202;18.744;2023-04-07T04:25:55;97161.69;;;1.96;65.03
70589;BME280;58152;49.202;18.744;2023-04-07T04:28:21;97159.97;;;1.95;64.88
70589;BME280;58152;49.202;18.744;2023-04-07T04:30:46;97151.31;;;1.96;65.15
70589;BME280;58152;49.202;18.744;2023-04-07T04:33:12;97158.25;;;1.95;64.99
70589;BME280;58152;49.202;18.744;2023-04-07T04:35:37;97157.41;;;1.92;64.96
70589;BME280;58152;49.202;18.744;2023-04-07T04:38:03;97165.19;;;1.93;65.02
70589;BME280;58152;49.202;18.744;2023-04-07T04:40:29;97154.84;;;1.92;65.03
70589;BME280;58152;49.202;18.744;2023-04-07T04:42:54;97159.16;;;1.93;65.10
70589;BME280;58152;49.202;18.744;2023-04-07T04:45:19;97159.97;;;1.95;65.32
70589;BME280;58152;49.202;18.744;2023-04-07T04:47:45;97159.16;;;1.93;64.88
70589;BME280;58152;49.202;18.744;2023-04-07T04:50:11;97160.00;;;1.92;64.50
70589;BME280;58152;49.202;18.744;2023-04-07T04:52:37;97164.34;;;1.93;64.85
70589;BME280;58152;49.202;18.744;2023-04-07T04:55:03;97162.59;;;1.92;65.08
70589;BME280;58152;49.202;18.744;2023-04-07T04:57:29;97166.88;;;1.94;64.98
70589;BME280;58152;49.202;18.744;2023-04-07T04:59:54;97161.69;;;1.96;64.94
70589;BME280;58152;49.202;18.744;2023-04-07T05:02:20;97163.38;;;1.97;64.86
70589;BME280;58152;49.202;18.744;2023-04-07T05:04:46;97162.53;;;1.96;65.17
70589;BME280;58152;49.202;18.744;2023-04-07T05:07:11;97158.25;;;1.95;64.71
70589;BME280;58152;49.202;18.744;2023-04-07T05:09:36;97160.78;;;1.98;65.26
70589;BME280;58152;49.202;18.744;2023-04-07T05:12:02;97150.44;;;1.98;65.11
70589;BME280;58152;49.202;18.744;2023-04-07T05:14:27;97152.19;;;1.98;65.26
70589;BME280;58152;49.202;18.744;2023-04-07T05:16:53;97150.44;;;1.97;65.06
70589;BME280;58152;49.202;18.744;2023-04-07T05:19:19;97156.50;;;1.96;65.04
70589;BME280;58152;49.202;18.744;2023-04-07T05:21:45;97151.31;;;1.97;64.75
70589;BME280;58152;49.202;18.744;2023-04-07T05:24:10;97165.91;;;2.03;64.91
70589;BME280;58152;49.202;18.744;2023-04-07T05:26:36;97153.91;;;1.97;64.83
70589;BME280;58152;49.202;18.744;2023-04-07T05:29:01;97151.31;;;1.97;64.91
70589;BME280;58152;49.202;18.744;2023-04-07T05:31:26;97164.13;;;2.05;64.83
70589;BME280;58152;49.202;18.744;2023-04-07T05:33:52;97156.41;;;2.03;64.45
70589;BME280;58152;49.202;18.744;2023-04-07T05:36:18;97168.41;;;2.06;64.82
70589;BME280;58152;49.202;18.744;2023-04-07T05:38:43;97173.59;;;2.08;65.10
70589;BME280;58152;49.202;18.744;2023-04-07T05:41:09;97165.84;;;2.08;64.72
70589;BME280;58152;49.202;18.744;2023-04-07T05:43:35;97176.13;;;2.12;65.15
70589;BME280;58152;49.202;18.744;2023-04-07T05:46:00;97163.25;;;2.08;65.15
70589;BME280;58152;49.202;18.744;2023-04-07T05:48:25;97168.34;;;2.11;64.63
70589;BME280;58152;49.202;18.744;2023-04-07T05:50:51;97170.09;;;2.10;64.50
70589;BME280;58152;49.202;18.744;2023-04-07T05:53:16;97161.44;;;2.13;64.74
70589;BME280;58152;49.202;18.744;2023-04-07T05:55:42;97170.88;;;2.17;64.75
70589;BME280;58152;49.202;18.744;2023-04-07T05:58:08;97171.72;;;2.17;64.70
70589;BME280;58152;49.202;18.744;2023-04-07T06:00:33;97164.84;;;2.16;64.35
70589;BME280;58152;49.202;18.744;2023-04-07T06:02:58;97164.00;;;2.16;64.48
70589;BME280;58152;49.202;18.744;2023-04-07T06:05:27;97173.41;;;2.20;64.63
70589;BME280;58152;49.202;18.744;2023-04-07T06:07:52;97167.41;;;2.18;64.86
70589;BME280;58152;49.202;18.744;2023-04-07T06:10:18;97168.22;;;2.20;65.17
70589;BME280;58152;49.202;18.744;2023-04-07T06:12:44;97163.06;;;2.18;64.87
70589;BME280;58152;49.202;18.744;2023-04-07T06:15:09;97164.78;;;2.21;65.05
70589;BME280;58152;49.202;18.744;2023-04-07T06:17:35;97162.13;;;2.24;64.79
70589;BME280;58152;49.202;18.744;2023-04-07T06:20:01;97162.97;;;2.24;64.77
70589;BME280;58152;49.202;18.744;2023-04-07T06:22:28;97162.13;;;2.24;65.02
70589;BME280;58152;49.202;18.744;2023-04-07T06:24:54;97163.81;;;2.26;64.84
70589;BME280;58152;49.202;18.744;2023-04-07T06:27:20;97155.16;;;2.27;65.05
70589;BME280;58152;49.202;18.744;2023-04-07T06:29:45;97161.19;;;2.29;65.12
70589;BME280;58152;49.202;18.744;2023-04-07T06:32:11;97149.09;;;2.28;64.97
70589;BME280;58152;49.202;18.744;2023-04-07T06:34:36;97151.56;;;2.36;65.07
70589;BME280;58152;49.202;18.744;2023-04-07T06:37:02;97157.56;;;2.40;64.81
70589;BME280;58152;49.202;18.744;2023-04-07T06:39:29;97153.25;;;2.40;65.05
70589;BME280;58152;49.202;18.744;2023-04-07T06:41:54;97143.78;;;2.39;65.04
70589;BME280;58152;49.202;18.744;2023-04-07T06:44:21;97159.16;;;2.47;64.88
70589;BME280;58152;49.202;18.744;2023-04-07T06:46:46;97152.13;;;2.55;65.60
70589;BME280;58152;49.202;18.744;2023-04-07T06:49:14;97161.41;;;2.68;65.50
70589;BME280;58152;49.202;18.744;2023-04-07T06:51:40;97146.72;;;2.70;65.12
70589;BME280;58152;49.202;18.744;2023-04-07T06:54:06;97157.81;;;2.77;64.65
70589;BME280;58152;49.202;18.744;2023-04-07T06:56:36;97157.75;;;2.80;64.77
70589;BME280;58152;49.202;18.744;2023-04-07T06:59:02;97160.28;;;2.83;64.71
70589;BME280;58152;49.202;18.744;2023-04-07T07:01:27;97155.94;;;2.85;64.36
70589;BME280;58152;49.202;18.744;2023-04-07T07:03:53;97145.56;;;2.84;64.29
70589;BME280;58152;49.202;18.744;2023-04-07T07:06:19;97158.44;;;2.88;64.23
70589;BME280;58152;49.202;18.744;2023-04-07T07:08:44;97157.50;;;2.92;64.04
70589;BME280;58152;49.202;18.744;2023-04-07T07:11:10;97157.44;;;2.98;63.61
70589;BME280;58152;49.202;18.744;2023-04-07T07:13:36;97157.25;;;3.06;63.37
70589;BME280;58152;49.202;18.744;2023-04-07T07:16:01;97149.41;;;3.12;63.41
70589;BME280;58152;49.202;18.744;2023-04-07T07:18:26;97141.53;;;3.15;63.52
70589;BME280;58152;49.202;18.744;2023-04-07T07:20:52;97165.53;;;3.25;63.15
70589;BME280;58152;49.202;18.744;2023-04-07T07:23:17;97155.13;;;3.28;63.42
70589;BME280;58152;49.202;18.744;2023-04-07T07:25:43;97146.44;;;3.30;63.34
70589;BME280;58152;49.202;18.744;2023-04-07T07:28:09;97159.22;;;3.40;63.07
70589;BME280;58152;49.202;18.744;2023-04-07T07:30:34;97159.13;;;3.44;63.30
70589;BME280;58152;49.202;18.744;2023-04-07T07:33:00;97157.28;;;3.49;63.34
70589;BME280;58152;49.202;18.744;2023-04-07T07:35:26;97162.44;;;3.51;63.21
70589;BME280;58152;49.202;18.744;2023-04-07T07:37:51;97167.44;;;3.60;63.14
70589;BME280;58152;49.202;18.744;2023-04-07T07:40:17;97151.91;;;3.59;62.94
70589;BME280;58152;49.202;18.744;2023-04-07T07:42:42;97156.94;;;3.66;62.65
70589;BME280;58152;49.202;18.744;2023-04-07T07:45:08;97156.88;;;3.69;62.90
70589;BME280;58152;49.202;18.744;2023-04-07T07:47:37;97156.88;;;3.69;62.56
70589;BME280;58152;49.202;18.744;2023-04-07T07:50:06;97161.22;;;3.69;62.51
70589;BME280;58152;49.202;18.744;2023-04-07T07:52:32;97164.69;;;3.68;62.07
70589;BME280;58152;49.202;18.744;2023-04-07T07:54:57;97159.56;;;3.65;62.10
70589;BME280;58152;49.202;18.744;2023-04-07T07:57:25;97174.13;;;3.70;61.50
70589;BME280;58152;49.202;18.744;2023-04-07T07:59:51;97175.03;;;3.69;61.90
70589;BME280;58152;49.202;18.744;2023-04-07T08:02:17;97164.59;;;3.72;61.51
70589;BME280;58152;49.202;18.744;2023-04-07T08:04:42;97168.94;;;3.70;61.46
70589;BME280;58152;49.202;18.744;2023-04-07T08:07:11;97162.75;;;3.77;61.63
70589;BME280;58152;49.202;18.744;2023-04-07T08:09:37;97167.00;;;3.81;61.52
70589;BME280;58152;49.202;18.744;2023-04-07T08:12:02;97166.91;;;3.85;61.33
70589;BME280;58152;49.202;18.744;2023-04-07T08:14:28;97171.25;;;3.84;61.57
70589;BME280;58152;49.202;18.744;2023-04-07T08:16:54;97159.13;;;3.86;61.18
70589;BME280;58152;49.202;18.744;2023-04-07T08:19:20;97154.63;;;3.93;61.30
70589;BME280;58152;49.202;18.744;2023-04-07T08:21:45;97158.81;;;3.98;61.03
70589;BME280;58152;49.202;18.744;2023-04-07T08:24:10;97155.38;;;3.99;61.31
70589;BME280;58152;49.202;18.744;2023-04-07T08:26:36;97161.34;;;4.01;60.94
70589;BME280;58152;49.202;18.744;2023-04-07T08:29:02;97164.78;;;4.03;60.95
70589;BME280;58152;49.202;18.744;2023-04-07T08:31:27;97172.47;;;4.08;61.78
70589;BME280;58152;49.202;18.744;2023-04-07T08:33:54;97156.84;;;4.10;61.30
70589;BME280;58152;49.202;18.744;2023-04-07T08:36:25;97163.75;;;4.11;61.36
70589;BME280;58152;49.202;18.744;2023-04-07T08:38:52;97158.50;;;4.12;60.88
70589;BME280;58152;49.202;18.744;2023-04-07T08:41:25;97154.22;;;4.11;61.13
70589;BME280;58152;49.202;18.744;2023-04-07T08:43:52;97162.00;;;4.13;60.94
70589;BME280;58152;49.202;18.744;2023-04-07T08:46:20;97154.25;;;4.10;60.89
70589;BME280;58152;49.202;18.744;2023-04-07T08:48:50;97160.25;;;4.13;61.04
70589;BME280;58152;49.202;18.744;2023-04-07T08:51:28;97164.50;;;4.16;60.89
70589;BME280;58152;49.202;18.744;2023-04-07T08:54:02;97158.41;;;4.17;60.61
70589;BME280;58152;49.202;18.744;2023-04-07T08:56:31;97165.22;;;4.22;60.65
70589;BME280;58152;49.202;18.744;2023-04-07T08:58:57;97159.19;;;4.22;60.94
70589;BME280;58152;49.202;18.744;2023-04-07T09:01:24;97165.03;;;4.30;60.85
70589;BME280;58152;49.202;18.744;2023-04-07T09:03:50;97170.97;;;4.35;61.02
70589;BME280;58152;49.202;18.744;2023-04-07T09:06:16;97160.56;;;4.37;60.82
70589;BME280;58152;49.202;18.744;2023-04-07T09:08:42;97158.69;;;4.42;61.01
70589;BME280;58152;49.202;18.744;2023-04-07T09:11:07;97157.69;;;4.47;60.85
70589;BME280;58152;49.202;18.744;2023-04-07T09:13:33;97158.44;;;4.52;60.59
70589;BME280;58152;49.202;18.744;2023-04-07T09:16:00;97145.38;;;4.55;60.41
70589;BME280;58152;49.202;18.744;2023-04-07T09:18:27;97147.81;;;4.62;60.89
70589;BME280;58152;49.202;18.744;2023-04-07T09:21:03;97150.91;;;4.76;61.08
70589;BME280;58152;49.202;18.744;2023-04-07T09:23:34;97138.63;;;4.82;60.66
70589;BME280;58152;49.202;18.744;2023-04-07T09:28:48;97143.34;;;5.01;60.41
70589;BME280;58152;49.202;18.744;2023-04-07T09:31:15;97142.25;;;5.09;59.99
70589;BME280;58152;49.202;18.744;2023-04-07T09:33:44;97134.34;;;5.13;60.09
70589;BME280;58152;49.202;18.744;2023-04-07T09:36:10;97141.41;;;5.07;60.03
70589;BME280;58152;49.202;18.744;2023-04-07T09:38:38;97154.53;;;5.04;60.92
70589;BME280;58152;49.202;18.744;2023-04-07T09:41:09;97156.25;;;5.04;61.00
70589;BME280;58152;49.202;18.744;2023-04-07T09:43:36;97131.13;;;5.03;60.47
70589;BME280;58152;49.202;18.744;2023-04-07T09:46:14;97141.41;;;5.09;60.56
70589;BME280;58152;49.202;18.744;2023-04-07T09:48:41;97142.19;;;5.11;60.23
70589;BME280;58152;49.202;18.744;2023-04-07T09:51:08;97151.63;;;5.15;60.24
70589;BME280;58152;49.202;18.744;2023-04-07T09:53:45;97150.72;;;5.16;59.90
70589;BME280;58152;49.202;18.744;2023-04-07T09:56:12;97138.69;;;5.14;59.81
70589;BME280;58152;49.202;18.744;2023-04-07T09:58:38;97147.19;;;5.19;59.90
70589;BME280;58152;49.202;18.744;2023-04-07T10:01:07;97131.50;;;5.22;59.82
70589;BME280;58152;49.202;18.744;2023-04-07T10:03:34;97136.50;;;5.29;59.85
70589;BME280;58152;49.202;18.744;2023-04-07T10:06:09;97129.66;;;5.27;60.24
70589;BME280;58152;49.202;18.744;2023-04-07T10:08:36;97137.31;;;5.31;60.11
70589;BME280;58152;49.202;18.744;2023-04-07T10:11:03;97146.63;;;5.39;60.05
70589;BME280;58152;49.202;18.744;2023-04-07T10:13:30;97135.38;;;5.38;59.84
70589;BME280;58152;49.202;18.744;2023-04-07T10:15:57;97139.78;;;5.36;59.84
70589;BME280;58152;49.202;18.744;2023-04-07T10:18:33;97141.63;;;5.31;60.09
70589;BME280;58152;49.202;18.744;2023-04-07T10:21:03;97147.75;;;5.30;59.82
70589;BME280;58152;49.202;18.744;2023-04-07T10:26:15;97150.47;;;5.25;59.56
70589;BME280;58152;49.202;18.744;2023-04-07T10:28:45;97141.03;;;5.23;59.73
70589;BME280;58152;49.202;18.744;2023-04-07T10:31:13;97130.75;;;5.18;59.92
70589;BME280;58152;49.202;18.744;2023-04-07T10:33:50;97150.53;;;5.24;59.85
70589;BME280;58152;49.202;18.744;2023-04-07T10:36:19;97142.78;;;5.22;59.58
70589;BME280;58152;49.202;18.744;2023-04-07T10:44:02;97151.97;;;5.34;60.34
70589;BME280;58152;49.202;18.744;2023-04-07T10:49:18;97145.00;;;5.36;60.38
70589;BME280;58152;49.202;18.744;2023-04-07T10:54:37;97154.38;;;5.42;59.95
70589;BME280;58152;49.202;18.744;2023-04-07T10:59:28;97148.34;;;5.40;60.17
70589;BME280;58152;49.202;18.744;2023-04-07T11:04:43;97150.81;;;5.44;59.94
70589;BME280;58152;49.202;18.744;2023-04-07T11:07:10;97145.47;;;5.50;59.87
70589;BME280;58152;49.202;18.744;2023-04-07T11:09:36;97141.88;;;5.54;60.50
70589;BME280;58152;49.202;18.744;2023-04-07T11:12:02;97143.44;;;5.60;60.04
70589;BME280;58152;49.202;18.744;2023-04-07T11:14:28;97137.34;;;5.61;59.40
70589;BME280;58152;49.202;18.744;2023-04-07T11:16:55;97144.22;;;5.64;59.94
70589;BME280;58152;49.202;18.744;2023-04-07T11:19:21;97145.84;;;5.66;59.75
70589;BME280;58152;49.202;18.744;2023-04-07T11:21:46;97148.47;;;5.66;59.41
70589;BME280;58152;49.202;18.744;2023-04-07T11:24:31;97149.31;;;5.67;59.92
70589;BME280;58152;49.202;18.744;2023-04-07T11:26:57;97145.91;;;5.65;59.60
70589;BME280;58152;49.202;18.744;2023-04-07T11:29:29;97147.69;;;5.63;60.03
70589;BME280;58152;49.202;18.744;2023-04-07T11:32:00;97140.84;;;5.58;59.68
70589;BME280;58152;49.202;18.744;2023-04-07T11:34:30;97152.03;;;5.62;59.56
70589;BME280;58152;49.202;18.744;2023-04-07T11:36:56;97152.09;;;5.60;59.88
70589;BME280;58152;49.202;18.744;2023-04-07T11:39:25;97146.03;;;5.60;59.76
70589;BME280;58152;49.202;18.744;2023-04-07T11:41:59;97147.75;;;5.61;59.82
70589;BME280;58152;49.202;18.744;2023-04-07T11:44:24;97149.44;;;5.62;59.70
70589;BME280;58152;49.202;18.744;2023-04-07T11:46:54;97156.31;;;5.65;60.38
70589;BME280;58152;49.202;18.744;2023-04-07T11:49:20;97147.75;;;5.61;59.91
70589;BME280;58152;49.202;18.744;2023-04-07T11:51:45;97148.81;;;5.54;60.35
70589;BME280;58152;49.202;18.744;2023-04-07T11:54:11;97148.81;;;5.54;59.98
70589;BME280;58152;49.202;18.744;2023-04-07T11:56:44;97153.25;;;5.50;60.57
70589;BME280;58152;49.202;18.744;2023-04-07T11:59:30;97156.84;;;5.46;60.36
70589;BME280;58152;49.202;18.744;2023-04-07T12:01:56;97155.22;;;5.42;60.13
70589;BME280;58152;49.202;18.744;2023-04-07T12:04:22;97150.09;;;5.39;60.36
70589;BME280;58152;49.202;18.744;2023-04-07T12:06:48;97148.41;;;5.38;60.86
70589;BME280;58152;49.202;18.744;2023-04-07T12:09:33;97154.53;;;5.35;61.04
70589;BME280;58152;49.202;18.744;2023-04-07T12:12:01;97147.66;;;5.33;60.59
70589;BME280;58152;49.202;18.744;2023-04-07T12:14:27;97155.47;;;5.33;62.01
70589;BME280;58152;49.202;18.744;2023-04-07T12:16:54;97151.78;;;5.40;61.60
70589;BME280;58152;49.202;18.744;2023-04-07T12:19:22;97149.19;;;5.40;61.48
70589;BME280;58152;49.202;18.744;2023-04-07T12:21:48;97150.94;;;5.40;61.58
70589;BME280;58152;49.202;18.744;2023-04-07T12:24:13;97150.19;;;5.36;61.84
70589;BME280;58152;49.202;18.744;2023-04-07T12:26:38;97161.47;;;5.35;61.64
70589;BME280;58152;49.202;18.744;2023-04-07T12:29:04;97161.53;;;5.33;62.00
70589;BME280;58152;49.202;18.744;2023-04-07T12:31:30;97161.53;;;5.33;61.77
70589;BME280;58152;49.202;18.744;2023-04-07T12:33:57;97164.97;;;5.34;62.05
70589;BME280;58152;49.202;18.744;2023-04-07T12:36:25;97172.84;;;5.32;62.33
70589;BME280;58152;49.202;18.744;2023-04-07T12:38:56;97168.53;;;5.31;62.49
70589;BME280;58152;49.202;18.744;2023-04-07T12:41:23;97175.50;;;5.29;62.79
70589;BME280;58152;49.202;18.744;2023-04-07T12:43:49;97176.47;;;5.27;62.24
70589;BME280;58152;49.202;18.744;2023-04-07T12:46:14;97172.13;;;5.27;62.88
70589;BME280;58152;49.202;18.744;2023-04-07T12:48:40;97175.59;;;5.26;62.82
70589;BME280;58152;49.202;18.744;2023-04-07T12:51:06;97176.47;;;5.25;63.05
70589;BME280;58152;49.202;18.744;2023-04-07T12:53:31;97181.78;;;5.22;62.99
70589;BME280;58152;49.202;18.744;2023-04-07T12:55:57;97182.63;;;5.23;63.19
70589;BME280;58152;49.202;18.744;2023-04-07T12:58:23;97190.44;;;5.23;63.44
70589;BME280;58152;49.202;18.744;2023-04-07T13:00:49;97189.63;;;5.21;63.14
70589;BME280;58152;49.202;18.744;2023-04-07T13:03:15;97186.28;;;5.16;63.48
70589;BME280;58152;49.202;18.744;2023-04-07T13:05:40;97195.78;;;5.18;63.61
70589;BME280;58152;49.202;18.744;2023-04-07T13:08:06;97186.22;;;5.17;63.62
70589;BME280;58152;49.202;18.744;2023-04-07T13:10:32;97181.03;;;5.17;63.24
70589;BME280;58152;49.202;18.744;2023-04-07T13:12:58;97187.00;;;5.21;63.62
70589;BME280;58152;49.202;18.744;2023-04-07T13:15:23;97180.97;;;5.20;64.17
70589;BME280;58152;49.202;18.744;2023-04-07T13:17:49;97176.69;;;5.18;63.79
70589;BME280;58152;49.202;18.744;2023-04-07T13:20:14;97186.09;;;5.23;63.87
70589;BME280;58152;49.202;18.744;2023-04-07T13:22:40;97187.78;;;5.24;63.85
70589;BME280;58152;49.202;18.744;2023-04-07T13:25:06;97182.66;;;5.21;63.97
70589;BME280;58152;49.202;18.744;2023-04-07T13:27:31;97187.06;;;5.19;63.74
70589;BME280;58152;49.202;18.744;2023-04-07T13:29:56;97181.03;;;5.17;63.80
70589;BME280;58152;49.202;18.744;2023-04-07T13:32:22;97181.88;;;5.19;63.92
70589;BME280;58152;49.202;18.744;2023-04-07T13:34:48;97175.88;;;5.16;63.63